Latest Weather Observations for Ocean Reef

IDW60801

Issued at 12:05 pm WST Thursday 27 November 2014 (issued every 30 minutes, with the page automatically refreshed every 10 minutes)

About weather observations | Map of weather stations | Latest weather observations for WA | Other Formats
Station Details ID: 009214 Name: OCEAN REEF Lat: -31.76 Lon: 115.73 Height: 10.0 m
Data from the previous 72 hours. | See also: Recent months for locations in Western Australia
Date/Time
WST
Temp
°C
App
Temp
°C
Dew
Point
Rel
Hum
%
Delta-T
°C
Wind Press
QNH
hPa
Press
MSL
hPa
Rain
since 9 am
mm
Dir
 
Spd
km/h
Gust
km/h
Spd
kts
Gust
kts
27/12:00pm - - - - - S 24 28 13 15 - - -
27/11:30am - - - - - S 19 22 10 12 - - -
27/11:00am - - - - - S 15 17 8 9 - - -
27/10:30am - - - - - S 13 17 7 9 - - -
27/10:00am - - - - - NNW 4 9 2 5 - - -
27/09:30am - - - - - SW 17 22 9 12 - - -
27/09:00am - - - - - S 11 13 6 7 - - -
27/08:30am - - - - - SSE 11 15 6 8 - - -
27/08:00am - - - - - S 11 15 6 8 - - -
27/07:30am - - - - - SSE 13 17 7 9 - - -
27/07:00am - - - - - S 13 20 7 11 - - -
27/06:30am - - - - - ENE 13 17 7 9 - - -
27/06:00am - - - - - NNE 19 24 10 13 - - -
27/05:30am - - - - - NNE 22 30 12 16 - - -
27/05:00am - - - - - NE 24 32 13 17 - - -
27/04:30am - - - - - N 20 32 11 17 - - -
27/04:00am - - - - - NNE 19 26 10 14 - - -
27/03:30am - - - - - NE 19 28 10 15 - - -
27/03:00am - - - - - NE 22 30 12 16 - - -
27/02:30am - - - - - NE 24 33 13 18 - - -
27/02:00am - - - - - NE 26 39 14 21 - - -
27/01:30am - - - - - NE 22 33 12 18 - - -
27/01:00am - - - - - ENE 28 37 15 20 - - -
27/12:30am - - - - - ENE 32 43 17 23 - - -
27/12:00am - - - - - ENE 30 41 16 22 - - -
 
Date/Time
WST
Temp
°C
App
Temp
°C
Dew
Point
Rel
Hum
%
Delta-T
°C
Wind Press
QNH
hPa
Press
MSL
hPa
Rain
since 9 am
mm
Dir
 
Spd
km/h
Gust
km/h
Spd
kts
Gust
kts
26/11:30pm - - - - - ENE 17 26 9 14 - - -
26/11:00pm - - - - - ENE 19 28 10 15 - - -
26/10:30pm - - - - - E 22 35 12 19 - - -
26/10:00pm - - - - - NE 15 20 8 11 - - -
26/09:30pm - - - - - E 22 37 12 20 - - -
26/09:00pm - - - - - E 22 30 12 16 - - -
26/08:30pm - - - - - E 20 32 11 17 - - -
26/08:00pm - - - - - E 24 33 13 18 - - -
26/07:40pm - - - - - E 30 48 16 26 - - -
26/07:30pm - - - - - E 26 41 14 22 - - -
26/07:00pm - - - - - ENE 20 32 11 17 - - -
26/06:30pm - - - - - ESE 24 35 13 19 - - -
26/06:00pm - - - - - E 28 39 15 21 - - -
26/05:30pm - - - - - E 26 41 14 22 - - -
26/05:00pm - - - - - ENE 28 43 15 23 - - -
26/04:30pm - - - - - ENE 30 50 16 27 - - -
26/04:25pm - - - - - ENE 28 50 15 27 - - -
26/04:00pm - - - - - NE 24 43 13 23 - - -
26/03:30pm - - - - - E 20 26 11 14 - - -
26/03:00pm - - - - - E 19 28 10 15 - - -
26/02:30pm - - - - - ESE 26 33 14 18 - - -
26/02:00pm - - - - - SE 24 37 13 20 - - -
26/01:30pm - - - - - S 30 43 16 23 - - -
26/01:26pm - - - - - S 28 43 15 23 - - -
26/01:00pm - - - - - SE 17 20 9 11 - - -
26/12:30pm - - - - - ESE 20 28 11 15 - - -
26/12:00pm - - - - - E 13 19 7 10 - - -
26/11:30am - - - - - ESE 20 33 11 18 - - -
26/11:04am - - - - - ENE 28 46 15 25 - - -
26/11:00am - - - - - ENE 28 43 15 23 - - -
26/10:42am - - - - - ENE 28 46 15 25 - - -
26/10:30am - - - - - ENE 28 43 15 23 - - -
26/10:00am - - - - - ENE 28 39 15 21 - - -
26/09:30am - - - - - ENE 30 43 16 23 - - -
26/09:00am - - - - - E 26 37 14 20 - - -
26/08:30am - - - - - E 30 39 16 21 - - -
26/08:00am - - - - - E 32 46 17 25 - - -
26/07:30am - - - - - E 32 52 17 28 - - -
26/07:24am - - - - - E 30 52 16 28 - - -
26/07:00am - - - - - E 32 46 17 25 - - -
26/06:51am - - - - - E 28 46 15 25 - - -
26/06:30am - - - - - E 33 50 18 27 - - -
26/06:21am - - - - - E 32 50 17 27 - - -
26/06:00am - - - - - E 30 46 16 25 - - -
26/05:51am - - - - - E 28 46 15 25 - - -
26/05:30am - - - - - E 26 35 14 19 - - -
26/05:00am - - - - - E 26 35 14 19 - - -
26/04:30am - - - - - E 26 35 14 19 - - -
26/04:00am - - - - - E 24 39 13 21 - - -
26/03:30am - - - - - E 19 28 10 15 - - -
26/03:00am - - - - - E 24 35 13 19 - - -
26/02:30am - - - - - E 24 35 13 19 - - -
26/02:00am - - - - - E 26 41 14 22 - - -
26/01:30am - - - - - E 32 41 17 22 - - -
26/01:03am - - - - - E 30 48 16 26 - - -
26/01:00am - - - - - E 32 48 17 26 - - -
26/12:47am - - - - - E 28 48 15 26 - - -
26/12:30am - - - - - E 28 39 15 21 - - -
26/12:00am - - - - - E 28 41 15 22 - - -
 
Date/Time
WST
Temp
°C
App
Temp
°C
Dew
Point
Rel
Hum
%
Delta-T
°C
Wind Press
QNH
hPa
Press
MSL
hPa
Rain
since 9 am
mm
Dir
 
Spd
km/h
Gust
km/h
Spd
kts
Gust
kts
25/11:52pm - - - - - E 30 48 16 26 - - -
25/11:30pm - - - - - E 32 44 17 24 - - -
25/11:00pm - - - - - ESE 24 35 13 19 - - -
25/10:30pm - - - - - ESE 24 37 13 20 - - -
25/10:00pm - - - - - ESE 24 33 13 18 - - -
25/09:30pm - - - - - ESE 17 22 9 12 - - -
25/09:00pm - - - - - SE 15 19 8 10 - - -
25/08:30pm - - - - - SE 13 17 7 9 - - -
25/08:00pm - - - - - S 9 9 5 5 - - -
25/07:30pm - - - - - SSE 11 13 6 7 - - -
25/07:00pm - - - - - S 15 20 8 11 - - -
25/06:30pm - - - - - S 30 37 16 20 - - -
25/06:00pm - - - - - S 32 37 17 20 - - -
25/05:30pm - - - - - S 33 43 18 23 - - -
25/05:00pm - - - - - S 35 46 19 25 - - -
25/04:30pm - - - - - S 37 44 20 24 - - -
25/04:00pm - - - - - S 32 43 17 23 - - -
25/03:30pm - - - - - S 28 39 15 21 - - -
25/03:00pm - - - - - S 28 33 15 18 - - -
25/02:30pm - - - - - S 26 33 14 18 - - -
25/02:00pm - - - - - S 28 35 15 19 - - -
25/01:30pm - - - - - S 28 35 15 19 - - -
25/01:00pm - - - - - S 30 37 16 20 - - -
25/12:30pm - - - - - SSE 17 26 9 14 - - -
25/12:00pm - - - - - E 20 26 11 14 - - -
25/11:30am - - - - - ESE 20 30 11 16 - - -
25/11:00am - - - - - E 22 33 12 18 - - -
25/10:30am - - - - - E 24 37 13 20 - - -
25/10:00am - - - - - E 24 35 13 19 - - -
25/09:30am - - - - - E 28 39 15 21 - - -
25/09:00am - - - - - E 26 41 14 22 - - -
25/08:30am - - - - - E 32 50 17 27 - - -
25/08:23am - - - - - E 32 50 17 27 - - -
25/08:00am - - - - - E 33 44 18 24 - - -
25/07:30am - - - - - E 33 48 18 26 - - -
25/07:10am - - - - - E 30 48 16 26 - - -
25/07:00am - - - - - E 32 44 17 24 - - -
25/06:30am - - - - - E 30 43 16 23 - - -
25/06:00am - - - - - E 28 35 15 19 - - -
25/05:30am - - - - - E 28 39 15 21 - - -
25/05:00am - - - - - E 28 39 15 21 - - -
25/04:30am - - - - - E 28 39 15 21 - - -
25/04:00am - - - - - E 28 39 15 21 - - -
25/03:30am - - - - - E 26 33 14 18 - - -
25/03:00am - - - - - E 26 39 14 21 - - -
25/02:30am - - - - - E 28 37 15 20 - - -
25/02:00am - - - - - E 28 37 15 20 - - -
25/01:30am - - - - - ESE 24 32 13 17 - - -
25/01:00am - - - - - SE 15 20 8 11 - - -
25/12:30am - - - - - SSE 13 15 7 8 - - -
25/12:00am - - - - - SSE 13 13 7 7 - - -
 
Date/Time
WST
Temp
°C
App
Temp
°C
Dew
Point
Rel
Hum
%
Delta-T
°C
Wind Press
QNH
hPa
Press
MSL
hPa
Rain
since 9 am
mm
Dir
 
Spd
km/h
Gust
km/h
Spd
kts
Gust
kts
24/11:30pm - - - - - SSE 11 13 6 7 - - -
24/11:00pm - - - - - SSE 15 19 8 10 - - -
24/10:30pm - - - - - SSE 17 20 9 11 - - -
24/10:00pm - - - - - SSE 17 20 9 11 - - -
24/09:30pm - - - - - SSE 17 22 9 12 - - -
24/09:00pm - - - - - SSE 17 26 9 14 - - -
24/08:30pm - - - - - SSE 24 32 13 17 - - -
24/08:00pm - - - - - S 28 37 15 20 - - -
24/07:30pm - - - - - S 33 46 18 25 - - -
24/07:00pm - - - - - S 39 52 21 28 - - -
24/06:30pm - - - - - S 46 54 25 29 - - -
24/06:00pm - - - - - S 46 54 25 29 - - -
24/05:30pm - - - - - S 46 56 25 30 - - -
24/05:00pm - - - - - S 43 54 23 29 - - -
24/04:30pm - - - - - S 39 50 21 27 - - -
24/04:00pm - - - - - S 41 50 22 27 - - -
24/03:30pm - - - - - S 41 50 22 27 - - -
24/03:00pm - - - - - S 41 50 22 27 - - -
24/02:30pm - - - - - S 39 46 21 25 - - -
24/02:00pm - - - - - S 35 43 19 23 - - -
24/01:30pm - - - - - S 33 41 18 22 - - -
24/01:00pm - - - - - SSW 33 41 18 22 - - -
24/12:30pm - - - - - SSW 32 39 17 21 - - -

Other Formats:

Comma delimited format used in spreadsheet applications
http://www.bom.gov.au/fwo/IDW60801/IDW60801.94607.axf

JavaScript Object Notation format (JSON) in row-major order
http://www.bom.gov.au/fwo/IDW60801/IDW60801.94607.json